Time;durP1;ratioP1;P1;durP2;ratioP2;P2;SDS_P1;SDS_P2;PMS_P1;PMS_P2;Temp;Humidity;BMP_temperature;BMP_pressure;BME280_temperature;BME280_humidity;BME280_pressure;Samples;Min_cycle;Max_cycle;Signal;HPM_P1;HPM_P2
2022/12/29 00:02:16;;;;;;;97.32;36.20;;;;;;;1.82;75.82;98475.19;4524994;31;20096;-80
2022/12/29 00:04:44;;;;;;;66.40;26.62;;;;;;;2.25;75.46;98482.75;4524805;31;20092;-80
2022/12/29 00:07:10;;;;;;;64.05;25.90;;;;;;;2.49;76.20;98492.00;4523945;31;20441;-80
2022/12/29 00:09:37;;;;;;;;;;;;;;;2.13;78.32;98481.09;4523760;31;20083;-80
2022/12/29 00:12:05;;;;;;;33.33;14.45;;;;;;;2.41;75.99;98474.19;4524675;31;19959;-81
2022/12/29 00:17:17;;;;;;;40.72;17.20;;;;;;;1.92;77.55;98468.41;4524725;31;20808;-80
2022/12/29 00:36:23;;;;;;;97.57;33.20;;;;;;;2.09;74.52;98460.72;4524263;31;20120;-80
2022/12/29 00:44:24;;;;;;;59.20;23.15;;;;;;;1.33;79.60;98454.00;4525021;31;20139;-80
2022/12/29 00:46:51;;;;;;;;;;;;;;;0.61;83.15;98465.72;4534301;31;20095;-80
2022/12/29 00:49:30;;;;;;;39.03;14.05;;;;;;;-0.10;87.82;98462.84;4540294;31;19966;-80
2022/12/29 00:52:05;;;;;;;26.17;12.45;;;;;;;0.24;87.24;98456.28;4541101;31;20132;-80
2022/12/29 00:54:34;;;;;;;25.20;10.55;;;;;;;0.44;85.87;98451.28;4526090;31;20080;-80
2022/12/29 00:57:03;;;;;;;43.42;17.02;;;;;;;1.02;82.82;98453.97;4540850;31;20097;-80
2022/12/29 00:59:30;;;;;;;63.00;24.73;;;;;;;1.39;79.30;98446.41;4541188;31;20087;-80
2022/12/29 01:01:57;;;;;;;;;;;;;;;1.25;80.00;98455.69;4540752;31;20063;-80
2022/12/29 01:04:25;;;;;;;75.93;27.20;;;;;;;1.56;76.89;98456.56;4541024;31;20584;-80
2022/12/29 01:06:52;;;;;;;80.60;28.15;;;;;;;0.85;80.17;98455.63;4540422;31;20110;-80
2022/12/29 01:12:40;;;;;;;61.90;24.05;;;;;;;0.91;80.99;98452.25;4495338;31;20060;-80
2022/12/29 01:15:07;;;;;;;58.25;20.75;;;;;;;0.78;82.12;98459.00;4540799;31;20091;-80
2022/12/29 01:17:34;;;;;;;41.88;15.57;;;;;;;1.18;80.74;98462.50;4540256;31;20092;-80
2022/12/29 01:20:03;;;;;;;34.00;13.43;;;;;;;0.42;84.17;98463.09;4539986;31;20115;-80
2022/12/29 01:22:30;;;;;;;35.25;14.57;;;;;;;0.46;84.30;98474.13;4525326;31;20091;-80
2022/12/29 01:24:57;;;;;;;31.10;13.18;;;;;;;0.84;83.31;98467.47;4539948;31;20155;-80
2022/12/29 01:27:23;;;;;;;;;;;;;;;0.95;82.57;98454.81;4540489;31;20095;-80
2022/12/29 01:29:50;;;;;;;51.35;20.12;;;;;;;1.63;78.34;98464.19;4539359;31;19982;-80
2022/12/29 01:32:17;;;;;;;;;;;;;;;1.56;78.19;98466.72;4540473;31;20087;-80
2022/12/29 01:34:44;;;;;;;46.55;18.67;;;;;;;1.39;79.59;98457.41;4539731;31;19963;-80
2022/12/29 01:37:11;;;;;;;;;;;;;;;0.99;80.96;98459.06;4539453;31;20092;-80
2022/12/29 01:39:38;;;;;;;52.40;20.75;;;;;;;1.26;80.31;98457.38;4539316;31;19979;-80
2022/12/29 01:42:05;;;;;;;57.78;22.90;;;;;;;1.12;79.76;98449.75;4539626;31;20083;-80
2022/12/29 01:44:53;;;;;;;40.33;16.85;;;;;;;0.54;83.54;98437.78;4539101;31;20112;-80
2022/12/29 01:47:33;;;;;;;50.38;19.85;;;;;;;0.38;87.77;98445.31;4538793;31;20098;-80
2022/12/29 01:50:29;;;;;;;33.08;13.68;;;;;;;0.67;84.79;98443.75;4539468;31;20413;-80
2022/12/29 01:53:08;;;;;;;33.92;14.75;;;;;;;-0.03;89.54;98435.81;4516597;31;20452;-80
2022/12/29 01:55:50;;;;;;;36.88;15.40;;;;;;;0.63;86.21;98438.63;4525560;31;20068;-80
2022/12/29 01:58:19;;;;;;;28.70;12.88;;;;;;;0.52;84.81;98436.91;4524787;31;20096;-81
2022/12/29 02:00:47;;;;;;;30.90;13.13;;;;;;;0.45;86.47;98432.69;4524972;31;20166;-80
2022/12/29 02:03:14;;;;;;;27.05;12.18;;;;;;;0.77;84.45;98434.47;4539427;31;20079;-80
2022/12/29 02:05:51;;;;;;;28.00;11.20;;;;;;;0.69;84.91;98436.97;4538815;31;22053;-80
2022/12/29 02:08:20;;;;;;;24.58;10.98;;;;;;;0.69;86.18;98425.97;4539135;31;20160;-80
2022/12/29 02:10:48;;;;;;;21.92;9.55;;;;;;;0.56;85.69;98420.00;4524900;31;20108;-80
2022/12/29 02:13:17;;;;;;;30.35;11.93;;;;;;;0.64;86.58;98413.28;4538472;31;20090;-80
2022/12/29 02:16:08;;;;;;;31.67;12.25;;;;;;;1.06;82.87;98409.97;4538588;31;20441;-80
2022/12/29 02:19:05;;;;;;;24.75;11.40;;;;;;;0.93;81.42;98399.75;4538883;31;20122;-81
2022/12/29 02:22:04;;;;;;;28.42;11.85;;;;;;;0.68;82.74;98396.34;4519173;31;20071;-80
2022/12/29 02:25:00;;;;;;;29.25;11.23;;;;;;;0.96;80.05;98392.13;4539141;31;20449;-80
2022/12/29 02:27:44;;;;;;;23.42;10.27;;;;;;;1.35;78.29;98391.28;4524756;31;20528;-80
2022/12/29 02:30:26;;;;;;;26.45;11.20;;;;;;;0.76;81.28;98394.66;4524886;31;20076;-80
2022/12/29 02:33:13;;;;;;;30.00;12.43;;;;;;;0.38;84.07;98394.56;4538976;31;20102;-80
2022/12/29 02:35:45;;;;;;;27.35;11.12;;;;;;;-0.35;89.00;98393.37;4524735;31;20112;-80
2022/12/29 02:38:46;;;;;;;24.70;11.27;;;;;;;-0.44;90.26;98388.25;4525279;31;20508;-80
2022/12/29 02:41:17;;;;;;;29.55;13.68;;;;;;;-0.25;88.93;98393.44;4538772;31;20406;-80
2022/12/29 02:44:04;;;;;;;29.80;13.62;;;;;;;0.11;87.69;98386.00;4539373;31;20064;-80
2022/12/29 02:46:47;;;;;;;29.73;15.35;;;;;;;0.36;85.37;98381.03;4538455;31;20093;-81
2022/12/29 02:49:22;;;;;;;36.92;16.95;;;;;;;0.50;85.12;98374.28;4524724;31;20060;-80
2022/12/29 02:51:58;;;;;;;35.38;16.70;;;;;;;0.55;86.48;98375.16;4524788;31;20228;-80
2022/12/29 02:54:43;;;;;;;34.72;15.07;;;;;;;0.58;85.69;98373.47;4524528;31;20107;-80
2022/12/29 02:57:22;;;;;;;30.55;14.27;;;;;;;0.61;84.08;98369.22;4527364;31;20106;-80
2022/12/29 03:00:07;;;;;;;31.87;14.05;;;;;;;0.91;81.91;98370.97;4539326;31;20490;-80
2022/12/29 03:02:46;;;;;;;32.00;15.45;;;;;;;0.56;83.25;98374.31;4525123;31;20072;-80
2022/12/29 03:05:35;;;;;;;39.90;16.77;;;;;;;0.12;85.63;98377.56;4539107;31;20074;-80
2022/12/29 03:08:05;;;;;;;33.80;15.73;;;;;;;0.70;83.14;98371.78;4538628;31;20102;-80
2022/12/29 03:11:02;;;;;;;38.58;18.67;;;;;;;0.43;85.49;98370.06;4538343;31;20135;-80
2022/12/29 03:16:35;;;;;;;39.22;18.02;;;;;;;0.22;87.44;98371.69;4538262;31;20074;-80
2022/12/29 03:19:08;;;;;;;38.72;16.55;;;;;;;0.22;87.27;98373.38;4524340;31;20087;-80
2022/12/29 03:24:28;;;;;;;41.83;18.42;;;;;;;0.67;85.09;98357.41;4539040;31;20096;-80
2022/12/29 03:26:59;;;;;;;41.35;18.80;;;;;;;0.29;88.74;98368.28;4538163;31;20095;-80
2022/12/29 03:29:28;;;;;;;37.70;17.12;;;;;;;0.64;86.74;98364.16;4525254;31;20366;-80
2022/12/29 03:31:55;;;;;;;38.55;16.23;;;;;;;-0.03;90.21;98364.78;4526245;31;20080;-80
2022/12/29 03:34:24;;;;;;;36.58;15.40;;;;;;;0.31;88.05;98365.75;4527134;31;20161;-80
2022/12/29 03:36:55;;;;;;;37.85;15.73;;;;;;;0.56;87.13;98364.16;4525874;31;20079;-80
2022/12/29 03:39:23;;;;;;;29.37;14.32;;;;;;;-0.14;89.75;98351.22;4540933;31;20087;-80
2022/12/29 03:41:54;;;;;;;33.95;14.70;;;;;;;0.45;86.59;98346.34;4526398;31;20144;-80
2022/12/29 03:44:21;;;;;;;31.70;15.60;;;;;;;0.90;84.29;98344.72;4525862;31;20078;-80
2022/12/29 03:46:48;;;;;;;;;;;;;;;1.12;80.95;98338.78;4526051;31;20159;-80
2022/12/29 03:49:15;;;;;;;33.35;14.98;;;;;;;0.87;81.31;98339.66;4540591;31;20674;-80
2022/12/29 03:51:44;;;;;;;39.70;17.17;;;;;;;0.55;83.60;98337.06;4540172;31;20429;-80
2022/12/29 03:54:11;;;;;;;36.08;17.60;;;;;;;0.11;86.47;98337.81;4540711;31;20148;-80
2022/12/29 03:56:38;;;;;;;;;;;;;;;0.67;85.89;98347.25;4540337;31;20104;-81
2022/12/29 03:59:04;;;;;;;27.58;12.68;;;;;;;0.66;84.48;98345.56;4540319;31;19947;-80
2022/12/29 04:01:31;;;;;;;;;;;;;;;-0.27;88.72;98340.19;4540912;31;20052;-80
2022/12/29 04:03:58;;;;;;;30.67;13.23;;;;;;;0.11;86.51;98353.03;4540211;31;19974;-80
2022/12/29 04:06:25;;;;;;;;;;;;;;;-0.04;86.65;98347.87;4540711;31;20159;-80
2022/12/29 04:08:52;;;;;;;32.72;14.40;;;;;;;0.18;85.69;98348.81;4540652;31;19971;-80
2022/12/29 04:11:20;;;;;;;29.23;13.45;;;;;;;0.18;85.54;98341.19;4539943;31;20056;-80
2022/12/29 04:13:47;;;;;;;35.40;15.05;;;;;;;0.18;86.55;98348.81;4540307;31;20103;-80
2022/12/29 04:16:14;;;;;;;;;;;;;;;-0.03;87.07;98345.34;4526269;31;20164;-80
2022/12/29 04:18:41;;;;;;;44.78;15.35;;;;;;;0.34;86.50;98349.72;4539984;31;19986;-80
2022/12/29 04:21:09;;;;;;;60.80;17.35;;;;;;;-0.70;93.02;98341.63;4539791;31;20056;-80
2022/12/29 04:23:38;;;;;;;126.43;22.33;;;;;;;-0.90;96.74;98338.94;4540185;31;20113;-80
2022/12/29 04:26:09;;;;;;;128.43;21.67;;;;;;;-0.85;99.28;98339.84;4539582;31;20106;-80
2022/12/29 04:28:36;;;;;;;81.87;20.17;;;;;;;-0.42;96.70;98351.09;4540150;31;20088;-80
2022/12/29 04:31:03;;;;;;;50.95;18.30;;;;;;;-0.68;97.25;98345.84;4525394;31;20152;-80
2022/12/29 04:33:31;;;;;;;36.33;14.15;;;;;;;-0.18;95.34;98345.28;4525372;31;20141;-80
2022/12/29 04:35:57;;;;;;;48.35;16.20;;;;;;;0.65;88.85;98354.03;4540093;31;20414;-80
2022/12/29 04:38:24;;;;;;;;;;;;;;;0.37;90.10;98354.78;4540649;31;20070;-80
2022/12/29 04:40:51;;;;;;;113.60;19.12;;;;;;;0.40;90.18;98353.09;4538956;31;20019;-80
2022/12/29 04:43:19;;;;;;;116.20;21.17;;;;;;;0.42;91.78;98350.56;4539851;31;20091;-80
2022/12/29 04:45:46;;;;;;;172.82;22.67;;;;;;;0.44;91.45;98359.06;4539552;31;20763;-80
2022/12/29 04:48:14;;;;;;;131.80;20.08;;;;;;;0.61;90.76;98351.44;4525140;31;20087;-80
2022/12/29 04:50:41;;;;;;;129.57;21.70;;;;;;;0.40;90.52;98352.25;4539540;31;20087;-80
2022/12/29 04:53:07;;;;;;;105.70;20.27;;;;;;;0.73;89.16;98349.78;4539092;31;20160;-80
2022/12/29 04:55:34;;;;;;;97.85;18.48;;;;;;;0.89;87.29;98352.34;4539683;31;20126;-80
2022/12/29 04:58:01;;;;;;;;;;;;;;;0.88;87.05;98354.03;4539887;31;20148;-80
2022/12/29 05:00:28;;;;;;;103.07;18.75;;;;;;;0.91;86.52;98356.56;4539384;31;19939;-80
2022/12/29 05:02:55;;;;;;;;;;;;;;;0.68;87.45;98361.63;4540214;31;20087;-80
2022/12/29 05:05:22;;;;;;;76.82;17.33;;;;;;;0.50;89.24;98364.97;4539650;31;19982;-80
2022/12/29 05:07:49;;;;;;;92.07;18.08;;;;;;;-0.50;93.70;98357.81;4538983;31;20625;-80
2022/12/29 05:10:16;;;;;;;58.28;16.45;;;;;;;-0.37;94.52;98359.56;4539172;31;20101;-80
2022/12/29 05:12:44;;;;;;;63.22;18.05;;;;;;;-1.02;100.00;98359.97;4525679;31;20083;-80
2022/12/29 05:15:11;;;;;;;132.18;20.80;;;;;;;-0.99;100.00;98364.19;4539005;31;20825;-80
2022/12/29 05:17:38;;;;;;;62.45;15.75;;;;;;;-1.22;100.00;98358.94;4539109;31;20092;-80
2022/12/29 05:20:05;;;;;;;;;;;;;;;-1.82;100.00;98358.31;4539762;31;20079;-80
2022/12/29 05:22:33;;;;;;;78.68;17.05;;;;;;;-1.69;100.00;98358.50;4539577;31;19997;-80
2022/12/29 05:25:00;;;;;;;103.25;19.23;;;;;;;-1.67;100.00;98362.72;4539037;31;20154;-80
2022/12/29 05:27:26;;;;;;;140.07;22.40;;;;;;;-1.37;100.00;98354.59;4538610;31;20091;-80
2022/12/29 05:29:53;;;;;;;;;;;;;;;-1.25;100.00;98353.84;4538827;31;20448;-80
2022/12/29 05:32:20;;;;;;;152.10;22.52;;;;;;;-1.16;100.00;98361.53;4538715;31;19967;-80
2022/12/29 05:34:47;;;;;;;;;;;;;;;-1.10;100.00;98355.66;4539012;31;20100;-80
2022/12/29 05:37:14;;;;;;;92.25;18.37;;;;;;;-1.05;100.00;98361.63;4525023;31;20029;-80
2022/12/29 05:39:40;;;;;;;;;;;;;;;-0.95;100.00;98355.81;4524794;31;20445;-80
2022/12/29 05:42:07;;;;;;;62.80;16.80;;;;;;;-0.72;100.00;98355.97;4538637;31;19955;-80
2022/12/29 05:44:34;;;;;;;;;;;;;;;-0.94;100.00;98348.22;4539551;31;20095;-80
2022/12/29 05:47:01;;;;;;;163.57;21.98;;;;;;;-0.76;100.00;98367.75;4538831;31;19971;-80
2022/12/29 05:49:28;;;;;;;160.55;21.33;;;;;;;-0.88;100.00;98355.84;4538284;31;20521;-80
2022/12/29 05:51:54;;;;;;;;;;;;;;;-0.50;100.00;98362.87;4538225;31;20104;-80
2022/12/29 05:54:21;;;;;;;228.62;25.55;;;;;;;-0.63;100.00;98359.41;4538932;31;19943;-80
2022/12/29 05:56:48;;;;;;;205.80;25.58;;;;;;;-0.95;100.00;98348.22;4538170;31;20159;-80
2022/12/29 05:59:15;;;;;;;;;;;;;;;-0.58;100.00;98351.81;4538882;31;20122;-80
2022/12/29 06:01:42;;;;;;;197.85;22.45;;;;;;;-0.16;100.00;98351.22;4538899;31;20019;-80
2022/12/29 06:04:09;;;;;;;202.82;26.15;;;;;;;-0.21;100.00;98352.03;4524523;31;20122;-80
2022/12/29 06:06:35;;;;;;;;;;;;;;;0.11;100.00;98352.19;4538785;31;20083;-80
2022/12/29 06:09:02;;;;;;;209.82;24.33;;;;;;;0.02;100.00;98347.06;4524248;31;19942;-80
2022/12/29 06:11:29;;;;;;;130.77;22.65;;;;;;;0.21;100.00;98347.16;4523434;31;20059;-80
2022/12/29 06:13:56;;;;;;;;;;;;;;;-0.32;100.00;98346.91;4538972;31;20103;-80
2022/12/29 06:16:23;;;;;;;115.03;17.75;;;;;;;0.17;100.00;98347.13;4538921;31;20448;-80
2022/12/29 06:18:49;;;;;;;191.25;25.02;;;;;;;-0.45;100.00;98350.22;4538205;31;20110;-80
2022/12/29 06:21:18;;;;;;;;;;;;;;;-0.87;100.00;98349.09;4539285;31;20107;-80
2022/12/29 06:23:45;;;;;;;141.77;18.52;;;;;;;-0.09;100.00;98349.56;4538899;31;20027;-80
2022/12/29 06:26:12;;;;;;;136.80;20.40;;;;;;;-0.43;100.00;98356.97;4538468;31;20087;-80
2022/12/29 06:28:39;;;;;;;176.57;23.15;;;;;;;-0.46;100.00;98356.13;4538748;31;20159;-80
2022/12/29 06:31:08;;;;;;;;;;;;;;;-0.51;100.00;98360.34;4538396;31;20099;-80
2022/12/29 06:33:35;;;;;;;145.15;23.42;;;;;;;-0.07;100.00;98363.94;4538758;31;19955;-80
2022/12/29 06:36:02;;;;;;;;;;;;;;;-0.09;100.00;98362.25;4538694;31;20459;-80
2022/12/29 06:38:28;;;;;;;84.93;18.33;;;;;;;-0.37;100.00;98364.63;4538249;31;19967;-80
2022/12/29 06:40:55;;;;;;;;;;;;;;;-0.24;100.00;98357.94;4538664;31;20235;-80
2022/12/29 06:43:22;;;;;;;152.32;21.75;;;;;;;-0.42;100.00;98368.00;4538799;31;19983;-80
2022/12/29 06:45:49;;;;;;;176.32;23.17;;;;;;;-0.28;100.00;98370.59;4537606;31;20151;-80
2022/12/29 06:48:16;;;;;;;155.07;23.77;;;;;;;-0.17;100.00;98379.09;4538246;31;20079;-80
2022/12/29 06:50:42;;;;;;;;;;;;;;;0.22;100.00;98378.44;4538530;31;20113;-80
2022/12/29 06:53:10;;;;;;;151.30;22.20;;;;;;;-0.06;100.00;98382.53;4538163;31;20085;-80
2022/12/29 06:55:36;;;;;;;242.90;29.48;;;;;;;-0.53;100.00;98384.78;4538176;31;20091;-80
2022/12/29 06:58:03;;;;;;;225.60;30.35;;;;;;;-0.44;100.00;98380.63;4537921;31;20104;-80
2022/12/29 07:00:30;;;;;;;;;;;;;;;-0.69;100.00;98381.31;4537619;31;20126;-80
2022/12/29 07:02:57;;;;;;;58.65;14.05;;;;;;;-0.06;100.00;98387.63;4538998;31;19994;-80
2022/12/29 07:05:27;;;;;;;194.90;26.17;;;;;;;-0.60;100.00;98377.16;4540241;31;20143;-80
2022/12/29 07:07:55;;;;;;;254.07;30.33;;;;;;;0.25;100.00;98394.53;4539664;31;20083;-80
2022/12/29 07:10:22;;;;;;;244.62;29.27;;;;;;;0.11;100.00;98385.16;4525205;31;20118;-80
2022/12/29 07:12:48;;;;;;;132.68;24.33;;;;;;;0.12;100.00;98397.00;4539860;31;20437;-80
2022/12/29 07:15:15;;;;;;;;;;;;;;;0.04;100.00;98388.50;4539821;31;20056;-80
2022/12/29 07:17:42;;;;;;;129.38;23.00;;;;;;;-0.32;100.00;98385.81;4539659;31;19981;-80
2022/12/29 07:20:09;;;;;;;190.48;27.92;;;;;;;-0.58;100.00;98384.78;4539331;31;20114;-80
2022/12/29 07:22:36;;;;;;;348.20;36.60;;;;;;;0.00;100.00;98387.66;4539479;31;20561;-80
2022/12/29 07:25:03;;;;;;;;;;;;;;;0.22;100.00;98402.13;4540134;31;20088;-80
2022/12/29 07:27:30;;;;;;;111.70;21.75;;;;;;;-0.41;100.00;98400.13;4539010;31;19959;-80
2022/12/29 07:29:57;;;;;;;;;;;;;;;-0.98;100.00;98397.12;4539854;31;20114;-80
2022/12/29 07:32:23;;;;;;;232.65;30.77;;;;;;;-0.81;100.00;98396.44;4539766;31;20011;-80
2022/12/29 07:34:50;;;;;;;369.55;40.30;;;;;;;-0.75;100.00;98399.00;4539108;31;20129;-80
2022/12/29 07:37:17;;;;;;;;;;;;;;;-0.73;100.00;98389.75;4539624;31;20148;-80
2022/12/29 07:39:45;;;;;;;213.25;28.10;;;;;;;-0.73;100.00;98380.47;4539460;31;20079;-80
2022/12/29 07:42:12;;;;;;;202.27;31.33;;;;;;;-0.53;100.00;98390.75;4539155;31;20110;-80
2022/12/29 07:44:39;;;;;;;421.27;44.40;;;;;;;-0.57;100.00;98398.28;4539354;31;20083;-80
2022/12/29 07:47:06;;;;;;;;;;;;;;;-0.32;100.00;98395.06;4539367;31;20146;-80
2022/12/29 07:49:33;;;;;;;334.20;37.33;;;;;;;0.16;100.00;98403.78;4539253;31;19982;-80
2022/12/29 07:52:00;;;;;;;;;;;;;;;0.11;100.00;98411.38;4539481;31;20068;-80
2022/12/29 07:54:27;;;;;;;172.68;23.52;;;;;;;-0.10;100.00;98398.59;4539431;31;20014;-80
2022/12/29 07:56:53;;;;;;;;;;;;;;;-0.15;100.00;98408.72;4539226;31;20048;-80
2022/12/29 07:59:20;;;;;;;145.60;21.60;;;;;;;-0.09;100.00;98393.53;4539759;31;19999;-80
2022/12/29 08:01:47;;;;;;;333.48;38.13;;;;;;;-0.40;100.00;98405.19;4539395;31;20814;-80
2022/12/29 08:04:14;;;;;;;394.27;43.95;;;;;;;-0.09;100.00;98402.84;4538945;31;20079;-80
2022/12/29 08:06:41;;;;;;;;;;;;;;;0.47;100.00;98397.12;4539536;31;20071;-80
2022/12/29 08:09:08;;;;;;;261.10;36.75;;;;;;;0.33;100.00;98398.78;4539073;31;20464;-80
2022/12/29 08:11:43;;;;;;;280.75;34.35;;;;;;;0.04;100.00;98391.91;4525835;31;20127;-80
2022/12/29 08:14:10;;;;;;;247.25;34.40;;;;;;;0.02;100.00;98391.06;4524623;31;20064;-80
2022/12/29 08:16:36;;;;;;;;;;;;;;;0.19;100.00;98386.03;4539577;31;20073;-80
2022/12/29 08:19:04;;;;;;;185.05;27.87;;;;;;;0.13;100.00;98386.88;4539554;31;20509;-80
2022/12/29 08:21:32;;;;;;;122.10;25.05;;;;;;;-0.02;100.00;98374.94;4539691;31;20420;-80
2022/12/29 08:23:59;;;;;;;173.87;25.30;;;;;;;-0.18;100.00;98383.34;4539219;31;20056;-80
2022/12/29 08:26:26;;;;;;;;;;;;;;;-0.36;100.00;98379.00;4540009;31;20075;-80
2022/12/29 08:28:54;;;;;;;171.07;28.55;;;;;;;-0.32;100.00;98382.41;4539783;31;19947;-80
2022/12/29 08:31:21;;;;;;;111.12;23.35;;;;;;;0.14;100.00;98382.63;4539023;31;20095;-80
2022/12/29 08:33:48;;;;;;;126.47;25.73;;;;;;;-0.44;100.00;98387.38;4539702;31;20092;-80
2022/12/29 08:36:15;;;;;;;;;;;;;;;-0.30;100.00;98378.19;4539642;31;20051;-80
2022/12/29 08:38:42;;;;;;;175.60;26.75;;;;;;;-0.03;100.00;98380.84;4539233;31;20536;-80
2022/12/29 08:41:09;;;;;;;;;;;;;;;-0.54;100.00;98381.41;4540163;31;20467;-80
2022/12/29 08:43:35;;;;;;;127.45;25.15;;;;;;;-0.30;100.00;98379.06;4540124;31;19989;-80
2022/12/29 08:46:02;;;;;;;;;;;;;;;-0.23;100.00;98382.44;4539499;31;20144;-80
2022/12/29 08:48:30;;;;;;;232.70;33.95;;;;;;;-0.27;100.00;98384.97;4539644;31;20297;-80
2022/12/29 08:50:56;;;;;;;;;;;;;;;-0.07;100.00;98383.38;4539674;31;20461;-80
2022/12/29 08:53:23;;;;;;;172.25;26.40;;;;;;;0.63;100.00;98386.16;4539296;31;19971;-80
2022/12/29 08:55:56;;;;;;;162.98;27.42;;;;;;;0.57;100.00;98389.53;4538974;31;20127;-80
2022/12/29 08:58:31;;;;;;;239.88;34.60;;;;;;;0.26;100.00;98387.75;4538958;31;20469;-80
2022/12/29 09:00:58;;;;;;;210.95;32.08;;;;;;;0.82;100.00;98381.97;4539060;31;20096;-80
2022/12/29 09:03:26;;;;;;;293.10;35.30;;;;;;;0.84;100.00;98375.19;4538636;31;20083;-80
2022/12/29 09:06:14;;;;;;;227.82;32.50;;;;;;;1.52;100.00;98373.50;4538840;31;20115;-80
2022/12/29 09:08:41;;;;;;;165.43;30.42;;;;;;;1.20;100.00;98368.44;4538660;31;20143;-80
2022/12/29 09:11:13;;;;;;;;;;;;;;;1.51;100.00;98370.09;4539105;31;20140;-80
2022/12/29 09:13:41;;;;;;;210.00;30.02;;;;;;;1.87;100.00;98375.94;4539391;31;20642;-80
2022/12/29 09:16:08;;;;;;;181.60;29.30;;;;;;;2.01;100.00;98369.09;4539485;31;20087;-80
2022/12/29 09:18:35;;;;;;;182.65;28.10;;;;;;;2.13;100.00;98361.44;4538999;31;20447;-80
2022/12/29 09:21:05;;;;;;;240.43;33.00;;;;;;;2.55;100.00;98355.31;4524446;31;20111;-80
2022/12/29 09:23:33;;;;;;;189.95;30.65;;;;;;;2.49;100.00;98345.13;4539327;31;20444;-80
2022/12/29 09:25:59;;;;;;;141.37;25.58;;;;;;;3.31;100.00;98345.38;4537916;31;20467;-80
2022/12/29 09:28:28;;;;;;;;;;;;;;;3.35;100.00;98347.03;4539340;31;20108;-80
2022/12/29 09:30:57;;;;;;;139.55;26.73;;;;;;;3.11;100.00;98358.31;4539403;31;19974;-80
2022/12/29 09:33:25;;;;;;;118.50;25.92;;;;;;;3.16;100.00;98347.19;4538743;31;20135;-80
2022/12/29 09:35:54;;;;;;;202.85;30.85;;;;;;;2.85;100.00;98349.13;4538613;31;20079;-80
2022/12/29 09:38:21;;;;;;;122.18;25.73;;;;;;;3.09;99.38;98343.03;4538652;31;20099;-80
2022/12/29 09:40:52;;;;;;;127.70;27.02;;;;;;;2.90;99.38;98349.97;4537916;31;20087;-80
2022/12/29 09:43:19;;;;;;;111.07;25.65;;;;;;;2.16;100.00;98356.34;4538463;31;20098;-80
2022/12/29 09:46:11;;;;;;;146.80;26.60;;;;;;;1.86;100.00;98338.63;4537809;31;20174;-80
2022/12/29 09:48:40;;;;;;;191.85;28.55;;;;;;;1.48;100.00;98338.72;4538099;31;20099;-80
2022/12/29 09:51:11;;;;;;;174.60;28.17;;;;;;;1.78;100.00;98338.66;4524030;31;20107;-80
2022/12/29 09:53:41;;;;;;;128.38;27.37;;;;;;;1.68;100.00;98335.28;4524011;31;20087;-80
2022/12/29 09:56:15;;;;;;;156.70;31.05;;;;;;;2.08;100.00;98337.69;4523136;31;20143;-80
2022/12/29 09:59:10;;;;;;;206.75;31.75;;;;;;;1.49;100.00;98332.78;4523966;31;20675;-80
2022/12/29 10:01:58;;;;;;;251.65;33.78;;;;;;;2.64;100.00;98333.16;4537418;31;20099;-80
2022/12/29 10:04:27;;;;;;;239.57;33.75;;;;;;;2.84;100.00;98327.06;4538194;31;20877;-80
2022/12/29 10:06:59;;;;;;;140.98;31.12;;;;;;;3.14;97.08;98325.97;4523369;31;20139;-80
2022/12/29 10:10:15;;;;;;;135.37;28.23;;;;;;;3.28;95.51;98327.53;4537479;31;20099;-80
2022/12/29 10:13:04;;;;;;;102.68;28.35;;;;;;;3.06;94.69;98325.19;4538053;31;20148;-80
2022/12/29 10:15:34;;;;;;;181.20;33.38;;;;;;;2.31;100.00;98319.75;4522928;31;20091;-80
2022/12/29 10:18:23;;;;;;;148.52;30.37;;;;;;;2.17;100.00;98316.44;4537820;31;20096;-80
2022/12/29 10:20:55;;;;;;;169.82;36.15;;;;;;;2.37;100.00;98318.91;4523635;31;20100;-79
2022/12/29 10:23:26;;;;;;;173.65;34.08;;;;;;;2.44;100.00;98315.44;4537415;31;20453;-80
2022/12/29 10:25:57;;;;;;;97.07;32.75;;;;;;;2.78;100.00;98316.09;4523181;31;20091;-80
2022/12/29 10:28:44;;;;;;;114.45;32.55;;;;;;;2.55;100.00;98314.53;4537039;31;20109;-80
2022/12/29 10:31:22;;;;;;;93.97;32.50;;;;;;;2.95;100.00;98319.31;4536817;31;20126;-80
2022/12/29 10:33:53;;;;;;;90.68;33.42;;;;;;;3.03;100.00;98302.28;4536983;31;20493;-80
2022/12/29 10:36:35;;;;;;;94.43;34.20;;;;;;;3.08;100.00;98297.97;4522177;31;20083;-79
2022/12/29 10:39:24;;;;;;;84.93;32.70;;;;;;;3.70;99.09;98311.81;4521044;31;20107;-80
2022/12/29 10:41:57;;;;;;;79.80;32.63;;;;;;;4.44;95.30;98298.94;4535198;31;20091;-80
2022/12/29 10:44:28;;;;;;;82.25;31.77;;;;;;;4.70;94.52;98296.03;4534706;31;20091;-80
2022/12/29 10:47:00;;;;;;;72.18;31.15;;;;;;;5.87;90.29;98300.78;4510962;31;292337;-80
2022/12/29 10:49:28;;;;;;;67.18;30.62;;;;;;;6.12;85.74;98298.59;4534811;31;20102;-80
2022/12/29 10:51:58;;;;;;;70.65;29.02;;;;;;;7.13;83.05;98298.84;4519791;31;20449;-80
2022/12/29 10:54:33;;;;;;;65.80;29.73;;;;;;;6.92;79.96;98295.94;4534597;31;20095;-80
2022/12/29 10:57:03;;;;;;;65.22;30.12;;;;;;;7.62;77.59;98292.44;4520204;31;20087;-80
2022/12/29 10:59:33;;;;;;;66.82;31.30;;;;;;;8.27;73.52;98282.00;4519727;31;20369;-80
2022/12/29 11:02:09;;;;;;;61.88;29.58;;;;;;;8.48;72.49;98281.41;4534482;31;20103;-80
2022/12/29 11:05:02;;;;;;;60.15;30.08;;;;;;;8.72;70.92;98292.69;4534239;31;20112;-81
2022/12/29 11:07:30;;;;;;;59.67;29.87;;;;;;;9.39;67.59;98285.31;4520122;31;20438;-80
2022/12/29 11:10:40;;;;;;;56.40;27.98;;;;;;;9.45;66.45;98290.25;4534218;31;20071;-80
2022/12/29 11:13:18;;;;;;;64.57;29.85;;;;;;;9.49;66.25;98275.53;4524663;31;20107;-80
2022/12/29 11:15:47;;;;;;;62.17;29.58;;;;;;;9.07;67.12;98280.41;4534428;31;20501;-80
2022/12/29 11:18:39;;;;;;;53.97;28.62;;;;;;;8.90;68.27;98268.91;4520029;31;20106;-80
2022/12/29 11:21:27;;;;;;;56.28;27.33;;;;;;;8.36;70.11;98256.91;4525572;31;20118;-80
2022/12/29 11:23:57;;;;;;;58.00;29.92;;;;;;;8.13;72.29;98260.12;4534173;31;20110;-80
2022/12/29 11:26:24;;;;;;;52.67;26.87;;;;;;;8.63;71.03;98250.06;4519496;31;20071;-80
2022/12/29 11:29:11;;;;;;;51.85;27.92;;;;;;;8.70;71.06;98248.13;4534193;31;20827;-80
2022/12/29 11:31:41;;;;;;;55.33;25.90;;;;;;;8.64;70.69;98256.06;4533996;31;20492;-80
2022/12/29 11:34:09;;;;;;;50.38;25.45;;;;;;;9.01;70.48;98258.28;4533718;31;20087;-80
2022/12/29 11:36:36;;;;;;;60.88;26.02;;;;;;;8.67;70.38;98261.09;4533891;31;20095;-80
2022/12/29 11:39:03;;;;;;;50.45;25.17;;;;;;;9.76;67.09;98265.97;4533969;31;20099;-80
2022/12/29 11:41:37;;;;;;;48.15;24.92;;;;;;;9.84;66.07;98251.94;4533529;31;20095;-80
2022/12/29 11:44:05;;;;;;;49.40;25.65;;;;;;;10.27;65.05;98259.84;4533911;31;20099;-80
2022/12/29 11:46:37;;;;;;;50.53;25.65;;;;;;;9.83;65.59;98246.84;4533536;31;20099;-80
2022/12/29 11:49:04;;;;;;;49.85;26.05;;;;;;;10.04;64.72;98246.03;4533920;31;20445;-80
2022/12/29 11:51:43;;;;;;;50.08;25.20;;;;;;;9.60;65.83;98255.41;4521478;31;20106;-80
2022/12/29 11:54:17;;;;;;;48.53;25.23;;;;;;;9.80;66.80;98255.53;4521560;31;20099;-80
2022/12/29 11:56:44;;;;;;;45.17;25.20;;;;;;;10.13;66.00;98250.03;4536118;31;20117;-80
2022/12/29 11:59:26;;;;;;;46.60;24.95;;;;;;;10.40;65.18;98251.56;4536155;31;20079;-80
2022/12/29 12:01:54;;;;;;;47.33;22.65;;;;;;;10.27;65.74;98252.09;4535724;31;20083;-80
2022/12/29 12:04:23;;;;;;;44.38;22.02;;;;;;;11.22;60.77;98249.97;4536136;31;20091;-80
2022/12/29 12:07:03;;;;;;;41.45;21.50;;;;;;;11.70;59.30;98251.38;4521584;31;20114;-80
2022/12/29 12:09:51;;;;;;;41.17;20.65;;;;;;;11.99;58.27;98254.41;4535588;31;20092;-80
2022/12/29 12:12:39;;;;;;;41.15;21.35;;;;;;;11.95;58.07;98251.12;4535745;31;20075;-80
2022/12/29 12:15:08;;;;;;;;;;;;;;;11.32;60.54;98247.00;4521674;31;20100;-80
2022/12/29 12:17:49;;;;;;;39.70;20.30;;;;;;;11.41;60.72;98237.12;4521634;31;19979;-80
2022/12/29 12:20:21;;;;;;;41.47;21.20;;;;;;;11.52;60.91;98231.50;4535833;31;20102;-80
2022/12/29 12:23:01;;;;;;;35.80;19.77;;;;;;;12.21;58.66;98242.19;4535558;31;20094;-81